createdAt,value
2024-04-18T00:01:51.622Z,73.56
2024-04-18T00:04:19.434Z,73.41
2024-04-18T00:06:47.300Z,73.46
2024-04-18T00:09:17.338Z,73.68
2024-04-18T00:11:47.757Z,73.44
2024-04-18T00:14:15.731Z,73.14
2024-04-18T00:16:43.290Z,73.26
2024-04-18T00:19:19.872Z,73.65
2024-04-18T00:22:00.206Z,73.56
2024-04-18T00:24:30.741Z,73.83
2024-04-18T00:26:58.326Z,73.68
2024-04-18T00:29:38.241Z,73.38
2024-04-18T00:32:12.218Z,73.66
2024-04-18T00:35:00.004Z,73.68
2024-04-18T00:37:37.167Z,74.20
2024-04-18T00:40:05.088Z,74.93
2024-04-18T00:42:39.446Z,75.05
2024-04-18T00:45:07.710Z,75.13
2024-04-18T00:47:48.994Z,75.36
2024-04-18T00:50:17.119Z,74.50
2024-04-18T00:52:44.574Z,74.00
2024-04-18T00:55:30.614Z,73.97
2024-04-18T00:58:13.657Z,74.40
2024-04-18T01:00:44.438Z,74.11
2024-04-18T01:03:31.019Z,73.54
2024-04-18T01:06:08.477Z,73.38
2024-04-18T01:08:55.363Z,73.63
2024-04-18T01:11:32.426Z,73.57
2024-04-18T01:14:20.917Z,73.65
2024-04-18T01:17:04.636Z,73.63
2024-04-18T01:19:32.592Z,73.49
2024-04-18T01:22:04.046Z,73.31
2024-04-18T01:24:33.899Z,72.86
2024-04-18T01:27:01.710Z,73.00
2024-04-18T01:29:44.514Z,73.11
2024-04-18T01:32:33.980Z,73.55
2024-04-18T01:35:01.939Z,74.02
2024-04-18T01:37:46.841Z,74.30
2024-04-18T01:40:14.506Z,74.15
2024-04-18T01:42:42.289Z,72.91
2024-04-18T01:45:39.332Z,72.57
2024-04-18T01:48:13.633Z,72.41
2024-04-18T01:51:04.242Z,72.23
2024-04-18T01:53:34.518Z,72.35
2024-04-18T01:56:02.005Z,72.27
2024-04-18T01:58:44.520Z,72.44
2024-04-18T02:01:12.036Z,72.51
2024-04-18T02:03:39.763Z,72.37
2024-04-18T02:06:16.599Z,72.40
2024-04-18T02:08:50.406Z,72.53
2024-04-18T02:11:38.558Z,72.92
2024-04-18T02:14:13.600Z,72.98
2024-04-18T02:16:41.140Z,73.17
2024-04-18T02:19:23.761Z,73.85
2024-04-18T02:22:20.126Z,73.14
2024-04-18T02:25:10.070Z,73.10
2024-04-18T02:27:45.466Z,72.57
2024-04-18T02:30:27.204Z,72.79
2024-04-18T02:33:13.838Z,73.02
2024-04-18T02:35:50.472Z,72.78
2024-04-18T02:38:36.533Z,72.90
2024-04-18T02:41:07.683Z,73.66
2024-04-18T02:43:54.300Z,73.22
2024-04-18T02:46:22.723Z,73.07
2024-04-18T02:49:09.200Z,74.18
2024-04-18T02:51:56.519Z,73.93
2024-04-18T02:54:42.627Z,74.50
2024-04-18T02:57:10.428Z,74.53
2024-04-18T02:59:38.001Z,74.91
2024-04-18T03:02:24.911Z,75.03
2024-04-18T03:04:52.560Z,75.05
2024-04-18T03:07:24.407Z,75.72
2024-04-18T03:09:54.078Z,74.87
2024-04-18T03:12:29.904Z,75.68
2024-04-18T03:15:16.009Z,75.49
2024-04-18T03:18:03.779Z,76.02
2024-04-18T03:20:35.802Z,76.20
2024-04-18T03:23:10.260Z,75.36
2024-04-18T03:25:56.565Z,75.19
2024-04-18T03:28:24.163Z,75.01
2024-04-18T03:30:51.895Z,75.52
2024-04-18T03:33:19.547Z,74.82
2024-04-18T03:35:47.212Z,75.90
2024-04-18T03:38:14.866Z,75.81
2024-04-18T03:40:42.298Z,76.02
2024-04-18T03:43:09.988Z,76.69
2024-04-18T03:45:37.826Z,76.39
2024-04-18T03:48:24.138Z,76.75
2024-04-18T03:50:51.650Z,76.60
2024-04-18T03:53:19.429Z,76.93
2024-04-18T03:55:46.954Z,76.53
2024-04-18T03:58:14.524Z,76.24
2024-04-18T04:00:49.077Z,76.99
2024-04-18T04:03:16.719Z,76.58
2024-04-18T04:05:47.874Z,76.47
2024-04-18T04:08:15.335Z,75.74
2024-04-18T04:10:43.211Z,75.93
2024-04-18T04:13:11.230Z,76.32
2024-04-18T04:15:48.085Z,76.16
2024-04-18T04:18:35.128Z,76.29
2024-04-18T04:21:38.011Z,75.67
2024-04-18T04:24:06.638Z,75.99
2024-04-18T04:26:52.747Z,75.87
2024-04-18T04:29:20.878Z,75.48
2024-04-18T04:31:48.475Z,74.98
2024-04-18T04:34:16.022Z,75.42
2024-04-18T04:36:43.791Z,74.92
2024-04-18T04:39:11.531Z,74.36
2024-04-18T04:41:42.219Z,73.89
2024-04-18T04:44:09.811Z,74.41
2024-04-18T04:46:51.252Z,74.86
2024-04-18T04:49:22.483Z,74.15
2024-04-18T04:52:06.326Z,74.07
2024-04-18T04:54:44.048Z,73.44
2024-04-18T04:57:12.741Z,73.84
2024-04-18T04:59:40.910Z,73.56
2024-04-18T05:02:08.972Z,73.26
2024-04-18T05:04:49.562Z,73.43
2024-04-18T05:07:32.937Z,73.12
2024-04-18T05:10:20.373Z,73.30
2024-04-18T05:12:48.192Z,73.63
2024-04-18T05:15:35.233Z,73.65
2024-04-18T05:18:03.164Z,73.73
2024-04-18T05:20:30.773Z,73.53
2024-04-18T05:22:58.816Z,73.73
2024-04-18T05:25:26.566Z,74.16
2024-04-18T05:28:21.741Z,74.31
2024-04-18T05:31:03.490Z,73.51
2024-04-18T05:33:32.233Z,73.54
2024-04-18T05:36:00.183Z,73.86
2024-04-18T05:38:28.367Z,73.81
2024-04-18T05:40:56.607Z,73.15
2024-04-18T05:43:44.796Z,72.88
2024-04-18T05:46:14.935Z,72.87
2024-04-18T05:48:42.942Z,72.90
2024-04-18T05:51:11.271Z,72.79
2024-04-18T05:54:03.899Z,71.76
2024-04-18T05:56:31.716Z,71.45
2024-04-18T05:58:59.260Z,71.92
2024-04-18T06:01:27.315Z,71.52
2024-04-18T06:03:55.094Z,71.89
2024-04-18T06:06:24.698Z,71.01
2024-04-18T06:09:39.391Z,70.95
2024-04-18T06:12:08.926Z,71.08
2024-04-18T06:14:38.267Z,70.89
2024-04-18T06:17:08.664Z,70.28
2024-04-18T06:19:54.381Z,69.18
2024-04-18T06:22:40.124Z,68.87
2024-04-18T06:25:27.963Z,68.11
2024-04-18T06:27:57.747Z,67.03
2024-04-18T06:30:26.530Z,65.64
2024-04-18T06:32:54.771Z,66.57
2024-04-18T06:35:22.750Z,64.99
2024-04-18T06:37:52.927Z,64.68
2024-04-18T06:40:25.283Z,64.77
2024-04-18T06:42:53.533Z,64.63
2024-04-18T06:45:23.589Z,61.38
2024-04-18T06:47:51.772Z,52.68
2024-04-18T06:50:23.258Z,47.85
2024-04-18T06:52:56.384Z,44.31
2024-04-18T06:55:25.332Z,44.05
2024-04-18T06:57:54.281Z,43.19
2024-04-18T07:00:28.652Z,43.92
2024-04-18T07:02:57.957Z,44.89
2024-04-18T07:05:51.561Z,43.91
2024-04-18T07:08:25.849Z,42.70
2024-04-18T07:10:54.927Z,41.55
2024-04-18T07:13:34.797Z,39.74
2024-04-18T07:16:36.224Z,42.11
2024-04-18T07:19:26.310Z,40.61
2024-04-18T07:22:01.814Z,40.94
2024-04-18T07:24:51.209Z,40.28
2024-04-18T07:27:19.153Z,38.98
2024-04-18T07:29:47.106Z,39.70
2024-04-18T07:32:16.309Z,38.96
2024-04-18T07:34:44.688Z,38.78
2024-04-18T07:37:12.440Z,40.19
2024-04-18T07:39:40.997Z,40.66
2024-04-18T07:42:12.881Z,42.67
2024-04-18T07:44:46.852Z,40.11
2024-04-18T07:47:15.855Z,45.02
2024-04-18T07:49:46.207Z,46.72
2024-04-18T07:52:17.314Z,43.04
2024-04-18T07:54:45.768Z,41.58
2024-04-18T07:57:14.280Z,43.66
2024-04-18T07:59:43.581Z,46.29
2024-04-18T08:02:16.824Z,41.52
2024-04-18T08:04:54.981Z,40.23
2024-04-18T08:07:33.050Z,39.77
2024-04-18T08:10:08.297Z,40.32
2024-04-18T08:12:43.037Z,37.91
2024-04-18T08:15:23.463Z,36.41
2024-04-18T08:17:58.073Z,37.40
2024-04-18T08:20:25.956Z,35.50
2024-04-18T08:22:53.713Z,36.56
2024-04-18T08:25:21.915Z,37.37
2024-04-18T08:27:50.044Z,37.89
2024-04-18T08:30:18.314Z,36.13
2024-04-18T08:32:45.916Z,39.28
2024-04-18T08:35:15.612Z,40.00
2024-04-18T08:37:43.481Z,37.40
2024-04-18T08:40:14.898Z,39.18
2024-04-18T08:42:46.096Z,40.03
2024-04-18T08:45:14.564Z,42.06
2024-04-18T08:47:42.719Z,44.20
2024-04-18T08:50:28.628Z,45.82
2024-04-18T08:53:06.660Z,46.23
2024-04-18T08:55:37.372Z,46.49
2024-04-18T08:58:10.749Z,46.94
2024-04-18T09:00:45.569Z,44.37
2024-04-18T09:03:16.143Z,45.45
2024-04-18T09:05:54.640Z,46.09
2024-04-18T09:08:22.247Z,45.45
2024-04-18T09:10:50.712Z,46.66
2024-04-18T09:13:20.982Z,44.94
2024-04-18T09:15:49.196Z,45.03
2024-04-18T09:18:17.067Z,45.02
2024-04-18T09:20:45.208Z,46.67
2024-04-18T09:23:13.165Z,44.85
2024-04-18T09:25:57.549Z,45.35
2024-04-18T09:28:29.402Z,45.32
2024-04-18T09:31:02.164Z,44.95
2024-04-18T09:33:31.020Z,45.48
2024-04-18T09:36:01.766Z,46.22
2024-04-18T09:38:36.401Z,44.67
2024-04-18T09:41:29.659Z,43.90
2024-04-18T09:44:08.412Z,44.58
2024-04-18T09:46:36.198Z,44.50
2024-04-18T09:49:10.859Z,44.45
2024-04-18T09:51:41.959Z,44.84
2024-04-18T09:54:17.889Z,44.95
2024-04-18T09:56:48.632Z,45.29
2024-04-18T09:59:43.875Z,46.74
2024-04-18T10:02:14.144Z,46.14
2024-04-18T10:04:50.468Z,46.31
2024-04-18T10:07:18.789Z,44.73
2024-04-18T10:09:48.696Z,42.68
2024-04-18T10:12:16.618Z,42.59
2024-04-18T10:14:44.428Z,42.82
2024-04-18T10:17:32.286Z,42.57
2024-04-18T10:20:03.882Z,43.73
2024-04-18T10:22:45.236Z,44.89
2024-04-18T10:25:21.844Z,43.62
2024-04-18T10:27:49.982Z,44.62
2024-04-18T10:30:18.075Z,44.00
2024-04-18T10:32:46.546Z,44.42
2024-04-18T10:35:18.496Z,45.01
2024-04-18T10:37:51.446Z,45.37
2024-04-18T10:40:22.249Z,45.11
2024-04-18T10:42:50.335Z,45.59
2024-04-18T10:45:18.415Z,43.40
2024-04-18T10:47:49.817Z,43.30
2024-04-18T10:50:18.126Z,41.69
2024-04-18T10:52:45.802Z,41.26
2024-04-18T10:55:13.500Z,41.65
2024-04-18T10:57:45.396Z,40.35
2024-04-18T11:00:28.035Z,41.58
2024-04-18T11:03:02.308Z,42.05
2024-04-18T11:05:44.167Z,42.85
2024-04-18T11:08:25.252Z,43.41
2024-04-18T11:11:06.147Z,45.07
2024-04-18T11:13:40.822Z,44.64
2024-04-18T11:16:22.019Z,43.45
2024-04-18T11:18:52.046Z,43.30
2024-04-18T11:21:20.027Z,43.32
2024-04-18T11:23:57.124Z,42.86
2024-04-18T11:26:29.005Z,43.23
2024-04-18T11:28:58.750Z,44.54
2024-04-18T11:31:26.526Z,44.45
2024-04-18T11:33:57.087Z,44.79
2024-04-18T11:36:25.422Z,44.18
2024-04-18T11:39:02.878Z,44.30
2024-04-18T11:41:34.140Z,42.34
2024-04-18T11:44:03.244Z,42.90
2024-04-18T11:46:32.955Z,43.58
2024-04-18T11:49:01.197Z,42.80
2024-04-18T11:51:32.204Z,42.86
2024-04-18T11:54:00.249Z,42.72
2024-04-18T11:56:37.101Z,40.69
2024-04-18T11:59:28.430Z,40.44
2024-04-18T12:01:56.584Z,40.24
2024-04-18T12:04:24.723Z,39.03
2024-04-18T12:06:53.712Z,40.00
2024-04-18T12:09:30.396Z,40.40
2024-04-18T12:12:02.599Z,40.92
2024-04-18T12:14:48.768Z,42.54
2024-04-18T12:17:29.497Z,41.69
2024-04-18T12:20:16.958Z,40.51
2024-04-18T12:22:45.435Z,41.72
2024-04-18T12:25:16.867Z,40.23
2024-04-18T12:27:45.030Z,38.64
2024-04-18T12:30:39.385Z,37.22
2024-04-18T12:33:20.130Z,39.19
2024-04-18T12:35:49.258Z,38.18
2024-04-18T12:38:17.210Z,40.06
2024-04-18T12:40:45.810Z,40.73
2024-04-18T12:43:16.487Z,41.21
2024-04-18T12:46:06.442Z,41.49
2024-04-18T12:48:57.036Z,40.73
2024-04-18T12:51:26.225Z,40.93
2024-04-18T12:53:55.840Z,39.36
2024-04-18T12:56:49.284Z,38.12
2024-04-18T12:59:23.523Z,37.20
2024-04-18T13:01:51.527Z,37.03
2024-04-18T13:04:22.038Z,37.31
2024-04-18T13:06:49.877Z,37.05
2024-04-18T13:09:31.608Z,37.19
2024-04-18T13:12:05.678Z,37.61
2024-04-18T13:14:51.867Z,38.72
2024-04-18T13:17:19.988Z,36.69
2024-04-18T13:19:48.207Z,36.71
2024-04-18T13:22:16.092Z,36.35
2024-04-18T13:24:43.915Z,36.54
2024-04-18T13:27:28.274Z,36.92
2024-04-18T13:29:56.459Z,37.96
2024-04-18T13:32:37.893Z,36.14
2024-04-18T13:35:07.788Z,37.24
2024-04-18T13:37:35.344Z,38.19
2024-04-18T13:40:19.518Z,38.22
2024-04-18T13:42:57.897Z,38.40
2024-04-18T13:45:32.315Z,38.28
2024-04-18T13:48:06.916Z,37.47
2024-04-18T13:50:45.123Z,37.91
2024-04-18T13:53:16.284Z,36.60
2024-04-18T13:55:50.640Z,36.27
2024-04-18T13:58:19.376Z,36.37
2024-04-18T14:01:00.579Z,36.48
2024-04-18T14:03:28.866Z,36.14
2024-04-18T14:06:09.499Z,37.84
2024-04-18T14:08:41.230Z,37.79
2024-04-18T14:11:27.834Z,37.71
2024-04-18T14:14:09.167Z,37.08
2024-04-18T14:16:56.489Z,37.71
2024-04-18T14:19:34.039Z,37.40
2024-04-18T14:22:06.649Z,37.45
2024-04-18T14:24:35.159Z,38.09
2024-04-18T14:27:03.246Z,37.84
2024-04-18T14:29:30.945Z,36.97
2024-04-18T14:32:01.344Z,37.76
2024-04-18T14:34:48.634Z,39.08
2024-04-18T14:37:19.423Z,39.97
2024-04-18T14:39:48.106Z,41.04
2024-04-18T14:42:15.940Z,40.60
2024-04-18T14:44:43.626Z,40.51
2024-04-18T14:47:15.243Z,40.60
2024-04-18T14:50:01.831Z,41.73
2024-04-18T14:52:37.900Z,41.72
2024-04-18T14:55:28.832Z,42.14
2024-04-18T14:58:15.256Z,42.39
2024-04-18T15:00:53.112Z,42.14
2024-04-18T15:03:24.185Z,42.82
2024-04-18T15:05:55.973Z,43.82
2024-04-18T15:08:40.734Z,43.71
2024-04-18T15:11:23.767Z,43.49
2024-04-18T15:14:07.589Z,44.73
2024-04-18T15:16:35.359Z,45.26
2024-04-18T15:19:03.189Z,44.88
2024-04-18T15:22:00.231Z,44.85
2024-04-18T15:24:44.123Z,46.01
2024-04-18T15:27:11.746Z,46.01
2024-04-18T15:29:39.420Z,45.66
2024-04-18T15:32:22.325Z,45.49
2024-04-18T15:34:50.099Z,44.73
2024-04-18T15:37:36.175Z,44.85
2024-04-18T15:40:04.351Z,45.63
2024-04-18T15:42:32.140Z,44.65
2024-04-18T15:45:00.918Z,44.52
2024-04-18T15:47:32.863Z,44.28
2024-04-18T15:50:18.767Z,44.41
2024-04-18T15:52:46.547Z,44.41
2024-04-18T15:55:30.977Z,44.94
2024-04-18T15:58:17.121Z,45.29
2024-04-18T16:00:45.169Z,46.03
2024-04-18T16:03:33.042Z,46.69
2024-04-18T16:06:20.738Z,46.58
2024-04-18T16:09:07.169Z,47.34
2024-04-18T16:11:41.006Z,47.48
2024-04-18T16:14:29.059Z,46.72
2024-04-18T16:16:56.694Z,47.21
2024-04-18T16:19:39.857Z,46.86
2024-04-18T16:22:07.475Z,46.78
2024-04-18T16:24:50.221Z,47.05
2024-04-18T16:27:17.972Z,47.21
2024-04-18T16:30:01.012Z,47.41
2024-04-18T16:32:40.711Z,48.53
2024-04-18T16:35:08.436Z,48.16
2024-04-18T16:37:40.867Z,49.46
2024-04-18T16:40:14.724Z,50.01
2024-04-18T16:43:03.565Z,50.90
2024-04-18T16:45:50.083Z,51.03
2024-04-18T16:48:17.757Z,51.60
2024-04-18T16:50:45.601Z,51.69
2024-04-18T16:53:13.197Z,52.40
2024-04-18T16:55:43.821Z,52.18
2024-04-18T16:58:17.312Z,51.86
2024-04-18T17:01:00.280Z,52.20
2024-04-18T17:03:28.559Z,52.23
2024-04-18T17:06:03.123Z,53.24
2024-04-18T17:08:31.156Z,53.76
2024-04-18T17:10:58.932Z,53.54
2024-04-18T17:13:45.195Z,54.46
2024-04-18T17:16:12.892Z,54.38
2024-04-18T17:18:49.318Z,53.82
2024-04-18T17:21:17.133Z,54.01
2024-04-18T17:23:44.767Z,54.97
2024-04-18T17:26:12.408Z,53.97
2024-04-18T17:28:40.184Z,54.99
2024-04-18T17:31:08.084Z,54.44
2024-04-18T17:33:35.976Z,54.71
2024-04-18T17:36:04.526Z,54.51
2024-04-18T17:38:50.197Z,53.62
2024-04-18T17:41:32.635Z,54.58
2024-04-18T17:44:18.591Z,54.46
2024-04-18T17:46:58.889Z,54.75
2024-04-18T17:49:27.087Z,54.44
2024-04-18T17:51:55.156Z,54.56
2024-04-18T17:54:23.040Z,55.19
2024-04-18T17:56:51.157Z,56.11
2024-04-18T17:59:20.697Z,56.00
2024-04-18T18:01:48.431Z,56.44
2024-04-18T18:04:16.142Z,56.73
2024-04-18T18:06:44.163Z,56.76
2024-04-18T18:09:11.736Z,57.17
2024-04-18T18:11:40.330Z,57.55
2024-04-18T18:14:08.147Z,58.05
2024-04-18T18:16:54.294Z,58.16
2024-04-18T18:19:22.095Z,58.59
2024-04-18T18:21:59.512Z,59.03
2024-04-18T18:24:27.192Z,58.47
2024-04-18T18:26:54.717Z,59.35
2024-04-18T18:29:22.451Z,59.06
2024-04-18T18:32:08.601Z,58.59
2024-04-18T18:34:36.699Z,59.27
2024-04-18T18:37:04.670Z,58.48
2024-04-18T18:39:32.279Z,58.18
2024-04-18T18:41:59.856Z,58.86
2024-04-18T18:44:29.181Z,57.84
2024-04-18T18:46:56.883Z,58.26
2024-04-18T18:49:44.443Z,58.54
2024-04-18T18:52:12.113Z,57.14
2024-04-18T18:54:39.907Z,56.94
2024-04-18T18:57:08.609Z,56.92
2024-04-18T18:59:36.378Z,57.19
2024-04-18T19:02:04.190Z,57.47
2024-04-18T19:04:51.749Z,57.32
2024-04-18T19:07:19.362Z,57.91
2024-04-18T19:09:47.061Z,57.94
2024-04-18T19:12:14.683Z,57.99
2024-04-18T19:14:42.282Z,58.11
2024-04-18T19:17:10.711Z,58.16
2024-04-18T19:19:39.041Z,58.21
2024-04-18T19:22:06.600Z,58.43
2024-04-18T19:24:34.215Z,58.55
2024-04-18T19:27:02.152Z,58.99
2024-04-18T19:29:39.674Z,58.87
2024-04-18T19:32:18.550Z,59.10
2024-04-18T19:34:46.168Z,59.30
2024-04-18T19:37:13.707Z,58.84
2024-04-18T19:39:41.352Z,58.91
2024-04-18T19:42:09.224Z,59.23
2024-04-18T19:44:36.859Z,59.42
2024-04-18T19:47:06.975Z,59.79
2024-04-18T19:49:37.563Z,59.57
2024-04-18T19:52:08.306Z,59.28
2024-04-18T19:54:36.955Z,59.64
2024-04-18T19:57:05.322Z,59.47
2024-04-18T19:59:33.014Z,60.29
2024-04-18T20:02:00.563Z,59.51
2024-04-18T20:04:28.535Z,59.86
2024-04-18T20:06:56.134Z,59.76
2024-04-18T20:09:23.857Z,59.50
2024-04-18T20:11:51.502Z,59.48
2024-04-18T20:14:22.000Z,59.61
2024-04-18T20:16:49.597Z,59.81
2024-04-18T20:19:17.811Z,59.70
2024-04-18T20:21:45.690Z,59.48
2024-04-18T20:24:14.627Z,59.48
2024-04-18T20:27:00.582Z,59.33
2024-04-18T20:29:46.375Z,59.57
2024-04-18T20:32:24.248Z,59.27
2024-04-18T20:34:52.381Z,59.44
2024-04-18T20:37:20.225Z,59.44
2024-04-18T20:39:48.025Z,59.42
2024-04-18T20:42:15.807Z,59.55
2024-04-18T20:45:05.229Z,59.27
2024-04-18T20:47:33.214Z,59.43
2024-04-18T20:50:03.581Z,59.06
2024-04-18T20:52:31.433Z,59.10
2024-04-18T20:54:59.024Z,59.10
2024-04-18T20:57:27.884Z,59.29
2024-04-18T20:59:55.837Z,60.08
2024-04-18T21:02:23.662Z,60.27
2024-04-18T21:04:51.322Z,59.59
2024-04-18T21:07:18.888Z,59.40
2024-04-18T21:09:46.572Z,60.12
2024-04-18T21:12:14.112Z,59.18
2024-04-18T21:14:41.773Z,59.86
2024-04-18T21:17:09.338Z,59.66
2024-04-18T21:19:37.043Z,59.92
2024-04-18T21:22:05.819Z,59.22
2024-04-18T21:24:33.450Z,59.95
2024-04-18T21:27:01.063Z,60.15
2024-04-18T21:29:28.748Z,59.52
2024-04-18T21:31:56.249Z,59.54
2024-04-18T21:34:23.893Z,60.01
2024-04-18T21:36:51.486Z,59.52
2024-04-18T21:39:19.194Z,59.83
2024-04-18T21:41:47.066Z,60.59
2024-04-18T21:44:14.809Z,60.09
2024-04-18T21:46:42.424Z,60.59
2024-04-18T21:49:09.962Z,60.75
2024-04-18T21:51:37.564Z,60.98
2024-04-18T21:54:05.126Z,61.18
2024-04-18T21:56:32.919Z,61.04
2024-04-18T21:59:00.572Z,60.89
2024-04-18T22:01:42.267Z,61.16
2024-04-18T22:04:10.913Z,61.24
2024-04-18T22:06:38.947Z,61.47
2024-04-18T22:09:06.743Z,61.59
2024-04-18T22:11:34.410Z,61.63
2024-04-18T22:14:02.171Z,61.74
2024-04-18T22:16:29.764Z,61.86
2024-04-18T22:18:57.693Z,62.39
2024-04-18T22:21:35.669Z,62.17
2024-04-18T22:24:04.666Z,62.66
2024-04-18T22:26:32.262Z,62.83
2024-04-18T22:28:59.899Z,62.65
2024-04-18T22:31:27.595Z,62.71
2024-04-18T22:33:55.606Z,63.07
2024-04-18T22:36:23.322Z,62.88
2024-04-18T22:38:50.920Z,62.56
2024-04-18T22:41:18.748Z,63.65
2024-04-18T22:43:46.362Z,63.37
2024-04-18T22:46:14.041Z,63.41
2024-04-18T22:48:42.044Z,63.22
2024-04-18T22:51:09.726Z,63.09
2024-04-18T22:53:37.650Z,63.29
2024-04-18T22:56:05.322Z,63.24
2024-04-18T22:58:33.397Z,63.74
2024-04-18T23:01:04.368Z,64.39
2024-04-18T23:03:32.257Z,64.46
2024-04-18T23:06:15.783Z,64.68
2024-04-18T23:08:43.847Z,64.38
2024-04-18T23:11:11.535Z,64.28
2024-04-18T23:13:39.463Z,64.45
2024-04-18T23:16:07.327Z,64.50
2024-04-18T23:18:35.921Z,64.75
2024-04-18T23:21:03.713Z,64.77
2024-04-18T23:23:34.502Z,64.64
2024-04-18T23:26:02.633Z,64.59
2024-04-18T23:28:30.696Z,64.34
2024-04-18T23:30:58.327Z,64.99
2024-04-18T23:33:26.119Z,64.71
2024-04-18T23:35:53.869Z,64.17
2024-04-18T23:38:21.851Z,64.21
2024-04-18T23:40:49.993Z,64.41
2024-04-18T23:43:18.068Z,64.30
2024-04-18T23:45:45.712Z,64.30
2024-04-18T23:48:13.931Z,64.22
2024-04-18T23:50:42.887Z,64.44
2024-04-18T23:53:11.103Z,64.75
2024-04-18T23:55:40.351Z,64.77
2024-04-18T23:58:07.968Z,64.08
